createdAt,value
2018-07-28T00:00:07.189Z,23
2018-07-28T00:00:19.610Z,23
2018-07-28T00:00:32.013Z,23
2018-07-28T00:00:44.478Z,23
2018-07-28T00:00:56.919Z,23
2018-07-28T00:01:09.322Z,23
2018-07-28T00:01:21.946Z,23
2018-07-28T00:01:34.338Z,23
2018-07-28T00:01:46.752Z,22.9444444444
2018-07-28T00:01:59.223Z,23
2018-07-28T00:02:11.897Z,23
2018-07-28T00:02:24.289Z,23
2018-07-28T00:02:36.683Z,22.9444444444
2018-07-28T00:02:49.086Z,22.9444444444
2018-07-28T00:03:01.497Z,22.9444444444
2018-07-28T00:03:14.054Z,22.9444444444
2018-07-28T00:03:26.468Z,22.9444444444
2018-07-28T00:03:38.894Z,22.9444444444
2018-07-28T00:03:51.298Z,22.9444444444
2018-07-28T00:04:03.720Z,22.9444444444
2018-07-28T00:04:16.158Z,22.9444444444
2018-07-28T00:04:28.614Z,22.9444444444
2018-07-28T00:04:41.052Z,22.8888888889
2018-07-28T00:04:53.460Z,22.8888888889
2018-07-28T00:05:05.854Z,22.8888888889
2018-07-28T00:05:18.282Z,22.8888888889
2018-07-28T00:05:30.685Z,22.8888888889
2018-07-28T00:05:43.074Z,22.8888888889
2018-07-28T00:05:55.578Z,22.8888888889
2018-07-28T00:06:07.978Z,22.8888888889
2018-07-28T00:06:20.369Z,22.8888888889
2018-07-28T00:06:32.753Z,22.8888888889
2018-07-28T00:06:45.155Z,22.8888888889
2018-07-28T00:06:57.555Z,22.8888888889
2018-07-28T00:07:09.982Z,22.8888888889
2018-07-28T00:07:22.373Z,22.8888888889
2018-07-28T00:07:34.757Z,22.8333333333
2018-07-28T00:07:47.163Z,22.8333333333
2018-07-28T00:07:59.541Z,22.8888888889
2018-07-28T00:08:11.981Z,22.8333333333
2018-07-28T00:08:24.369Z,22.8333333333
2018-07-28T00:08:36.809Z,22.8333333333
2018-07-28T00:08:49.275Z,22.8333333333
2018-07-28T00:09:01.689Z,22.8333333333
2018-07-28T00:09:14.083Z,22.8333333333
2018-07-28T00:09:26.503Z,22.8333333333
2018-07-28T00:09:38.911Z,22.8333333333
2018-07-28T00:09:51.308Z,22.8333333333
2018-07-28T00:10:03.715Z,22.8333333333
2018-07-28T00:10:16.094Z,22.8333333333
2018-07-28T00:10:28.502Z,22.8333333333
2018-07-28T00:10:40.904Z,22.8333333333
2018-07-28T00:10:53.363Z,22.7777777778
2018-07-28T00:11:05.801Z,22.7777777778
2018-07-28T00:11:18.249Z,22.7777777778
2018-07-28T00:11:30.648Z,22.8333333333
2018-07-28T00:11:43.046Z,22.7777777778
2018-07-28T00:11:55.437Z,22.7777777778
2018-07-28T00:12:07.837Z,22.7777777778
2018-07-28T00:12:20.251Z,22.7777777778
2018-07-28T00:12:32.672Z,22.7777777778
2018-07-28T00:12:45.115Z,22.7777777778
2018-07-28T00:12:57.536Z,22.7777777778
2018-07-28T00:13:09.949Z,22.7777777778
2018-07-28T00:13:22.339Z,22.7777777778
2018-07-28T00:13:34.758Z,22.7777777778
2018-07-28T00:13:47.155Z,22.7777777778
2018-07-28T00:13:59.533Z,22.7777777778
2018-07-28T00:14:11.923Z,22.7777777778
2018-07-28T00:14:24.321Z,22.7222222222
2018-07-28T00:14:36.716Z,22.7777777778
2018-07-28T00:14:49.148Z,22.7777777778
2018-07-28T00:15:01.534Z,22.7777777778
2018-07-28T00:15:13.938Z,22.7222222222
2018-07-28T00:15:26.353Z,22.7777777778
2018-07-28T00:15:38.737Z,22.7222222222
2018-07-28T00:15:51.162Z,22.7222222222
2018-07-28T00:16:03.709Z,22.7777777778
2018-07-28T00:16:16.199Z,22.7222222222
2018-07-28T00:16:28.588Z,22.7777777778
2018-07-28T00:16:40.982Z,22.7222222222
2018-07-28T00:16:53.371Z,22.7222222222
2018-07-28T00:17:05.782Z,22.7222222222
2018-07-28T00:17:18.187Z,22.7222222222
2018-07-28T00:17:30.595Z,22.7222222222
2018-07-28T00:17:43.009Z,22.7777777778
2018-07-28T00:17:55.397Z,22.7222222222
2018-07-28T00:18:07.786Z,22.7222222222
2018-07-28T00:18:20.185Z,22.7222222222
2018-07-28T00:18:32.579Z,22.7222222222
2018-07-28T00:18:44.983Z,22.7222222222
2018-07-28T00:18:57.384Z,22.7222222222
2018-07-28T00:19:09.798Z,22.7222222222
2018-07-28T00:19:22.276Z,22.7222222222
2018-07-28T00:19:34.684Z,22.7222222222
2018-07-28T00:19:47.058Z,22.7222222222
2018-07-28T00:19:59.476Z,22.7222222222
2018-07-28T00:20:11.880Z,22.7222222222
2018-07-28T00:20:24.287Z,22.7222222222
2018-07-28T00:20:36.682Z,22.7222222222
2018-07-28T00:20:49.102Z,22.6666666667
2018-07-28T00:21:01.502Z,22.7222222222
2018-07-28T00:21:13.952Z,22.7222222222
2018-07-28T00:21:26.346Z,22.7222222222
2018-07-28T00:21:38.813Z,22.6666666667
2018-07-28T00:21:51.216Z,22.7222222222
2018-07-28T00:22:03.652Z,22.6666666667
2018-07-28T00:22:16.406Z,22.6666666667
2018-07-28T00:22:28.954Z,22.6666666667
2018-07-28T00:22:41.328Z,22.6666666667
2018-07-28T00:22:53.724Z,22.6666666667
2018-07-28T00:23:06.112Z,22.6666666667
2018-07-28T00:23:18.699Z,22.6666666667
2018-07-28T00:23:31.095Z,22.6666666667
2018-07-28T00:23:43.531Z,22.6111111111
2018-07-28T00:23:55.920Z,22.6111111111
2018-07-28T00:24:08.322Z,22.6111111111
2018-07-28T00:24:20.732Z,22.6111111111
2018-07-28T00:24:33.132Z,22.6111111111
2018-07-28T00:24:45.555Z,22.6111111111
2018-07-28T00:24:57.951Z,22.6111111111
2018-07-28T00:25:10.345Z,22.6111111111
2018-07-28T00:25:22.748Z,22.6111111111
2018-07-28T00:25:35.127Z,22.6111111111
2018-07-28T00:25:47.523Z,22.6111111111
2018-07-28T00:25:59.956Z,22.6111111111
2018-07-28T00:26:12.366Z,22.6111111111
2018-07-28T00:26:24.779Z,22.5555555556
2018-07-28T00:26:37.182Z,22.5555555556
2018-07-28T00:26:49.576Z,22.5555555556
2018-07-28T00:27:01.973Z,22.5555555556
2018-07-28T00:27:14.387Z,22.5555555556
2018-07-28T00:27:26.795Z,22.5555555556
2018-07-28T00:27:39.185Z,22.5555555556
2018-07-28T00:27:51.592Z,22.5555555556
2018-07-28T00:28:04.036Z,22.5555555556
2018-07-28T00:28:16.481Z,22.5555555556
2018-07-28T00:28:28.896Z,22.5555555556
2018-07-28T00:28:41.466Z,22.5555555556
2018-07-28T00:28:53.864Z,22.5555555556
2018-07-28T00:29:06.277Z,22.5555555556
2018-07-28T00:29:18.666Z,22.5555555556
2018-07-28T00:29:31.081Z,22.5555555556
2018-07-28T00:29:43.508Z,22.5
2018-07-28T00:29:55.939Z,22.5555555556
2018-07-28T00:30:08.345Z,22.5555555556
2018-07-28T00:30:20.741Z,22.5
2018-07-28T00:30:33.127Z,22.5
2018-07-28T00:30:45.534Z,22.5
2018-07-28T00:30:57.924Z,22.5555555556
2018-07-28T00:31:10.336Z,22.5
2018-07-28T00:31:22.737Z,22.5555555556
2018-07-28T00:31:35.148Z,22.5
2018-07-28T00:31:47.553Z,22.5
2018-07-28T00:31:59.950Z,22.5
2018-07-28T00:32:12.358Z,22.5
2018-07-28T00:32:24.775Z,22.5
2018-07-28T00:32:37.180Z,22.5
2018-07-28T00:32:49.568Z,22.4444444444
2018-07-28T00:33:01.965Z,22.5
2018-07-28T00:33:14.382Z,22.5
2018-07-28T00:33:26.789Z,22.5
2018-07-28T00:33:39.175Z,22.5
2018-07-28T00:33:51.597Z,22.4444444444
2018-07-28T00:34:04.051Z,22.5
2018-07-28T00:34:16.432Z,22.5
2018-07-28T00:34:28.827Z,22.5
2018-07-28T00:34:41.226Z,22.5
2018-07-28T00:34:53.622Z,22.5
2018-07-28T00:35:06.022Z,22.5
2018-07-28T00:35:18.421Z,22.5555555556
2018-07-28T00:35:30.811Z,22.5
2018-07-28T00:35:43.201Z,22.5555555556
2018-07-28T00:35:55.608Z,22.5
2018-07-28T00:36:08.022Z,22.5
2018-07-28T00:36:20.431Z,22.5555555556
2018-07-28T00:36:32.823Z,22.5555555556
2018-07-28T00:36:45.225Z,22.5
2018-07-28T00:36:57.616Z,22.5
2018-07-28T00:37:10.018Z,22.5
2018-07-28T00:37:22.408Z,22.5555555556
2018-07-28T00:37:34.805Z,22.5555555556
2018-07-28T00:37:47.197Z,22.5555555556
2018-07-28T00:37:59.572Z,22.5555555556
2018-07-28T00:38:11.967Z,22.5555555556
2018-07-28T00:38:24.377Z,22.5555555556
2018-07-28T00:38:36.787Z,22.5555555556
2018-07-28T00:38:49.262Z,22.5555555556
2018-07-28T00:39:01.658Z,22.5555555556
2018-07-28T00:39:14.151Z,22.5555555556
2018-07-28T00:39:26.551Z,22.5555555556
2018-07-28T00:39:38.963Z,22.5555555556
2018-07-28T00:39:51.431Z,22.5555555556
2018-07-28T00:40:03.831Z,22.5555555556
2018-07-28T00:40:16.260Z,22.5555555556
2018-07-28T00:40:28.646Z,22.5555555556
2018-07-28T00:40:41.039Z,22.5555555556
2018-07-28T00:40:53.438Z,22.5555555556
2018-07-28T00:41:05.831Z,22.5555555556
2018-07-28T00:41:18.215Z,22.5555555556
2018-07-28T00:41:30.619Z,22.5555555556
2018-07-28T00:41:43.027Z,22.5555555556
2018-07-28T00:41:55.428Z,22.5
2018-07-28T00:42:07.824Z,22.5555555556
2018-07-28T00:42:20.257Z,22.5555555556
2018-07-28T00:42:32.642Z,22.5
2018-07-28T00:42:45.035Z,22.5555555556
2018-07-28T00:42:57.438Z,22.5
2018-07-28T00:43:09.812Z,22.5
2018-07-28T00:43:22.213Z,22.5
2018-07-28T00:43:34.599Z,22.5
2018-07-28T00:43:46.996Z,22.5
2018-07-28T00:43:59.388Z,22.5
2018-07-28T00:44:11.797Z,22.5
2018-07-28T00:44:24.189Z,22.5
2018-07-28T00:44:36.630Z,22.5
2018-07-28T00:44:49.112Z,22.5
2018-07-28T00:45:01.522Z,22.5
2018-07-28T00:45:13.926Z,22.5
2018-07-28T00:45:26.339Z,22.5
2018-07-28T00:45:38.723Z,22.4444444444
2018-07-28T00:45:51.118Z,22.4444444444
2018-07-28T00:46:03.586Z,22.4444444444
2018-07-28T00:46:15.984Z,22.4444444444
2018-07-28T00:46:28.381Z,22.4444444444
2018-07-28T00:46:40.764Z,22.4444444444
2018-07-28T00:46:53.165Z,22.4444444444
2018-07-28T00:47:05.559Z,22.4444444444
2018-07-28T00:47:17.957Z,22.4444444444
2018-07-28T00:47:30.355Z,22.4444444444
2018-07-28T00:47:42.736Z,22.4444444444
2018-07-28T00:47:55.125Z,22.4444444444
2018-07-28T00:48:07.521Z,22.4444444444
2018-07-28T00:48:19.933Z,22.3888888889
2018-07-28T00:48:32.328Z,22.4444444444
2018-07-28T00:48:44.721Z,22.4444444444
2018-07-28T00:48:57.354Z,22.3888888889
2018-07-28T00:49:09.754Z,22.3888888889
2018-07-28T00:49:22.165Z,22.3888888889
2018-07-28T00:49:34.593Z,22.3888888889
2018-07-28T00:49:47.007Z,22.3888888889
2018-07-28T00:49:59.431Z,22.3888888889
2018-07-28T00:50:11.842Z,22.3888888889
2018-07-28T00:50:24.278Z,22.3333333333
2018-07-28T00:50:36.664Z,22.3333333333
2018-07-28T00:50:49.056Z,22.3333333333
2018-07-28T00:51:01.470Z,22.3888888889
2018-07-28T00:51:13.861Z,22.3333333333
2018-07-28T00:51:26.292Z,22.3333333333
2018-07-28T00:51:38.823Z,22.3888888889
2018-07-28T00:51:51.239Z,22.3333333333
2018-07-28T00:52:03.658Z,22.3333333333
2018-07-28T00:52:16.078Z,22.3333333333
2018-07-28T00:52:28.497Z,22.3333333333
2018-07-28T00:52:40.923Z,22.3333333333
2018-07-28T00:52:53.320Z,22.3333333333
2018-07-28T00:53:05.722Z,22.3333333333
2018-07-28T00:53:18.280Z,22.3333333333
2018-07-28T00:53:30.671Z,22.3333333333
2018-07-28T00:53:43.097Z,22.3333333333
2018-07-28T00:53:55.520Z,22.3333333333
2018-07-28T00:54:07.949Z,22.3333333333
2018-07-28T00:54:20.450Z,22.3333333333
2018-07-28T00:54:32.852Z,22.3333333333
2018-07-28T00:54:45.231Z,22.3333333333
2018-07-28T00:54:57.625Z,22.3333333333
2018-07-28T00:55:10.025Z,22.3333333333
2018-07-28T00:55:22.485Z,22.3333333333
2018-07-28T00:55:34.898Z,22.2777777778
2018-07-28T00:55:47.293Z,22.3333333333
2018-07-28T00:55:59.685Z,22.3333333333
2018-07-28T00:56:12.085Z,22.2777777778
2018-07-28T00:56:24.488Z,22.2777777778
2018-07-28T00:56:36.899Z,22.3333333333
2018-07-28T00:56:49.302Z,22.2777777778
2018-07-28T00:57:01.723Z,22.2777777778
2018-07-28T00:57:14.111Z,22.3333333333
2018-07-28T00:57:26.544Z,22.2777777778
2018-07-28T00:57:38.948Z,22.2777777778
2018-07-28T00:57:51.412Z,22.2777777778
2018-07-28T00:58:03.797Z,22.2777777778
2018-07-28T00:58:16.213Z,22.3333333333
2018-07-28T00:58:28.632Z,22.3333333333
2018-07-28T00:58:41.020Z,22.3333333333
2018-07-28T00:58:53.420Z,22.3333333333
2018-07-28T00:59:05.826Z,22.2777777778
2018-07-28T00:59:18.226Z,22.2777777778
2018-07-28T00:59:30.644Z,22.2777777778
2018-07-28T00:59:43.066Z,22.2777777778
2018-07-28T00:59:55.478Z,22.2777777778
2018-07-28T01:00:07.909Z,22.2777777778
2018-07-28T01:00:20.299Z,22.3333333333
2018-07-28T01:00:32.718Z,22.2777777778
2018-07-28T01:00:45.347Z,22.3333333333
2018-07-28T01:00:57.779Z,22.3333333333
2018-07-28T01:01:10.238Z,22.2777777778
2018-07-28T01:01:22.684Z,22.2777777778
2018-07-28T01:01:35.109Z,22.2777777778
2018-07-28T01:01:47.541Z,22.2777777778
2018-07-28T01:01:59.972Z,22.2777777778
2018-07-28T01:02:12.515Z,22.2777777778
2018-07-28T01:02:24.916Z,22.2777777778
2018-07-28T01:02:37.344Z,22.2777777778
2018-07-28T01:02:49.760Z,22.2777777778
2018-07-28T01:03:02.169Z,22.2777777778
2018-07-28T01:03:14.572Z,22.2777777778
2018-07-28T01:03:27.016Z,22.2777777778
2018-07-28T01:03:39.425Z,22.2777777778
2018-07-28T01:03:51.968Z,22.2777777778
2018-07-28T01:04:04.389Z,22.2777777778
2018-07-28T01:04:16.798Z,22.2777777778
2018-07-28T01:04:29.219Z,22.3333333333
2018-07-28T01:04:41.783Z,22.2777777778
2018-07-28T01:04:54.199Z,22.2777777778
2018-07-28T01:05:06.635Z,22.2777777778
2018-07-28T01:05:19.055Z,22.2777777778
2018-07-28T01:05:31.462Z,22.2777777778
2018-07-28T01:05:43.854Z,22.2777777778
2018-07-28T01:05:56.419Z,22.2777777778
2018-07-28T01:06:08.823Z,22.2777777778
2018-07-28T01:06:21.221Z,22.2777777778
2018-07-28T01:06:33.636Z,22.2777777778
2018-07-28T01:06:46.043Z,22.2777777778
2018-07-28T01:06:58.440Z,22.2777777778
2018-07-28T01:07:10.847Z,22.2222222222
2018-07-28T01:07:23.267Z,22.2777777778
2018-07-28T01:07:35.665Z,22.2777777778
2018-07-28T01:07:48.084Z,22.2222222222
2018-07-28T01:08:00.467Z,22.2777777778
2018-07-28T01:08:12.857Z,22.2222222222
2018-07-28T01:08:25.238Z,22.2222222222
2018-07-28T01:08:37.626Z,22.2222222222
2018-07-28T01:08:50.009Z,22.2222222222
2018-07-28T01:09:02.455Z,22.2222222222
2018-07-28T01:09:14.847Z,22.2222222222
2018-07-28T01:09:27.238Z,22.2777777778
2018-07-28T01:09:39.699Z,22.1666666667
2018-07-28T01:09:52.104Z,22.1666666667
2018-07-28T01:10:04.522Z,22.2222222222
2018-07-28T01:10:16.937Z,22.2222222222
2018-07-28T01:10:29.325Z,22.1666666667
2018-07-28T01:10:41.778Z,22.2222222222
2018-07-28T01:10:54.226Z,22.1666666667
2018-07-28T01:11:06.629Z,22.2222222222
2018-07-28T01:11:19.068Z,22.2222222222
2018-07-28T01:11:31.478Z,22.2222222222
2018-07-28T01:11:43.856Z,22.1666666667
2018-07-28T01:11:56.245Z,22.1666666667
2018-07-28T01:12:08.651Z,22.1666666667
2018-07-28T01:12:21.056Z,22.1666666667
2018-07-28T01:12:33.451Z,22.1666666667
2018-07-28T01:12:45.832Z,22.1666666667
2018-07-28T01:12:58.224Z,22.1666666667
2018-07-28T01:13:10.613Z,22.1666666667
2018-07-28T01:13:23.020Z,22.1666666667
2018-07-28T01:13:35.421Z,22.1666666667
2018-07-28T01:13:47.827Z,22.1666666667
2018-07-28T01:14:00.279Z,22.1666666667
2018-07-28T01:14:12.685Z,22.1666666667
2018-07-28T01:14:25.091Z,22.1666666667
2018-07-28T01:14:37.501Z,22.1666666667
2018-07-28T01:14:49.947Z,22.1666666667
2018-07-28T01:15:02.379Z,22.1666666667
2018-07-28T01:15:14.788Z,22.1666666667
2018-07-28T01:15:27.192Z,22.1666666667
2018-07-28T01:15:39.598Z,22.1666666667
2018-07-28T01:15:52.363Z,22.1666666667
2018-07-28T01:16:04.771Z,22.1666666667
2018-07-28T01:16:17.173Z,22.1111111111
2018-07-28T01:16:29.599Z,22.1111111111
2018-07-28T01:16:42.084Z,22.1111111111
2018-07-28T01:16:54.487Z,22.1111111111
2018-07-28T01:17:06.927Z,22.1111111111
2018-07-28T01:17:19.320Z,22.1111111111
2018-07-28T01:17:31.726Z,22.1111111111
2018-07-28T01:17:44.104Z,22.1111111111
2018-07-28T01:17:56.507Z,22.1111111111
2018-07-28T01:18:08.893Z,22.1111111111
2018-07-28T01:18:21.297Z,22.1111111111
2018-07-28T01:18:33.724Z,22.1111111111
2018-07-28T01:18:46.118Z,22.1111111111
2018-07-28T01:18:58.498Z,22.1111111111
2018-07-28T01:19:10.920Z,22.0555555556
2018-07-28T01:19:23.471Z,22.1111111111
2018-07-28T01:19:35.878Z,22.0555555556
2018-07-28T01:19:48.271Z,22.1111111111
2018-07-28T01:20:00.678Z,22.1111111111
2018-07-28T01:20:13.072Z,22.1111111111
2018-07-28T01:20:25.466Z,22.1111111111
2018-07-28T01:20:37.876Z,22.1111111111
2018-07-28T01:20:50.280Z,22.0555555556
2018-07-28T01:21:02.680Z,22.1111111111
2018-07-28T01:21:15.081Z,22.1111111111
2018-07-28T01:21:27.473Z,22.0555555556
2018-07-28T01:21:40.023Z,22.0555555556
2018-07-28T01:21:52.421Z,22.1111111111
2018-07-28T01:22:04.816Z,22.0555555556
2018-07-28T01:22:17.288Z,22.1111111111
2018-07-28T01:22:29.846Z,22.0555555556
2018-07-28T01:22:42.236Z,22.0555555556
2018-07-28T01:22:54.665Z,22.0555555556
2018-07-28T01:23:07.063Z,22.0555555556
2018-07-28T01:23:19.603Z,22.0555555556
2018-07-28T01:23:32.003Z,22.0555555556
2018-07-28T01:23:44.395Z,22.0555555556
2018-07-28T01:23:56.783Z,22.0555555556
2018-07-28T01:24:09.234Z,22.0555555556
2018-07-28T01:24:21.627Z,22.0555555556
2018-07-28T01:24:34.061Z,22.0555555556
2018-07-28T01:24:46.468Z,22.0555555556
2018-07-28T01:24:58.864Z,22.0555555556
2018-07-28T01:25:11.317Z,22.0555555556
2018-07-28T01:25:23.728Z,22.0555555556
2018-07-28T01:25:36.129Z,22.0555555556
2018-07-28T01:25:48.532Z,22.0555555556
2018-07-28T01:26:00.959Z,22.0555555556
2018-07-28T01:26:13.361Z,22.0555555556
2018-07-28T01:26:25.795Z,22.0555555556
2018-07-28T01:26:38.218Z,22.0555555556
2018-07-28T01:26:50.625Z,22
2018-07-28T01:27:03.044Z,22.0555555556
2018-07-28T01:27:15.452Z,22
2018-07-28T01:27:27.869Z,22.0555555556
2018-07-28T01:27:40.278Z,22.0555555556
2018-07-28T01:27:52.656Z,22
2018-07-28T01:28:05.042Z,22
2018-07-28T01:28:17.467Z,22.0555555556
2018-07-28T01:28:29.882Z,22
2018-07-28T01:28:42.270Z,22.0555555556
2018-07-28T01:28:54.663Z,22
2018-07-28T01:29:07.060Z,22
2018-07-28T01:29:19.455Z,22
2018-07-28T01:29:31.853Z,22
2018-07-28T01:29:44.264Z,22
2018-07-28T01:29:56.649Z,22
2018-07-28T01:30:09.064Z,22
2018-07-28T01:30:21.468Z,22
2018-07-28T01:30:33.876Z,22
2018-07-28T01:30:46.260Z,22
2018-07-28T01:30:58.641Z,22
2018-07-28T01:31:11.042Z,22
2018-07-28T01:31:23.429Z,22
2018-07-28T01:31:35.820Z,21.9444444444
2018-07-28T01:31:48.213Z,21.9444444444
2018-07-28T01:32:00.596Z,21.9444444444
2018-07-28T01:32:12.995Z,21.9444444444
2018-07-28T01:32:25.378Z,21.9444444444
2018-07-28T01:32:37.783Z,21.9444444444
2018-07-28T01:32:50.235Z,21.9444444444
2018-07-28T01:33:02.651Z,21.9444444444
2018-07-28T01:33:15.182Z,21.9444444444
2018-07-28T01:33:27.581Z,21.9444444444
2018-07-28T01:33:39.988Z,21.9444444444
2018-07-28T01:33:52.374Z,21.9444444444
2018-07-28T01:34:04.755Z,21.9444444444
2018-07-28T01:34:17.169Z,21.9444444444
2018-07-28T01:34:29.585Z,21.9444444444
2018-07-28T01:34:41.989Z,21.9444444444
2018-07-28T01:34:54.376Z,21.9444444444
2018-07-28T01:35:06.793Z,21.9444444444
2018-07-28T01:35:19.170Z,21.9444444444
2018-07-28T01:35:31.590Z,21.9444444444
2018-07-28T01:35:43.995Z,21.8888888889
2018-07-28T01:35:56.417Z,21.8888888889
2018-07-28T01:36:08.811Z,21.9444444444
2018-07-28T01:36:21.189Z,21.9444444444
2018-07-28T01:36:33.599Z,21.8888888889
2018-07-28T01:36:45.987Z,21.8888888889
2018-07-28T01:36:58.392Z,21.8888888889
2018-07-28T01:37:10.806Z,21.8888888889
2018-07-28T01:37:23.243Z,21.8888888889
2018-07-28T01:37:35.629Z,21.8888888889
2018-07-28T01:37:48.030Z,21.8888888889
2018-07-28T01:38:00.459Z,21.8888888889
2018-07-28T01:38:13.035Z,21.8888888889
2018-07-28T01:38:25.484Z,21.8888888889
2018-07-28T01:38:37.870Z,21.8888888889
2018-07-28T01:38:50.263Z,21.8888888889
2018-07-28T01:39:02.782Z,21.8888888889
2018-07-28T01:39:15.214Z,21.8888888889
2018-07-28T01:39:27.609Z,21.8888888889
2018-07-28T01:39:39.998Z,21.8888888889
2018-07-28T01:39:52.535Z,21.8333333333
2018-07-28T01:40:04.977Z,21.8888888889
2018-07-28T01:40:17.380Z,21.8333333333
2018-07-28T01:40:29.760Z,21.8888888889
2018-07-28T01:40:42.258Z,21.8333333333
2018-07-28T01:40:54.667Z,21.8333333333
2018-07-28T01:41:07.083Z,21.8333333333
2018-07-28T01:41:19.497Z,21.8333333333
2018-07-28T01:41:31.892Z,21.8333333333
2018-07-28T01:41:44.315Z,21.8333333333
2018-07-28T01:41:56.722Z,21.8333333333
2018-07-28T01:42:09.107Z,21.8333333333
2018-07-28T01:42:21.519Z,21.8333333333
2018-07-28T01:42:33.913Z,21.8333333333
2018-07-28T01:42:46.366Z,21.8333333333
2018-07-28T01:42:58.754Z,21.8333333333
2018-07-28T01:43:11.166Z,21.8333333333
2018-07-28T01:43:23.559Z,21.8333333333
2018-07-28T01:43:35.999Z,21.8333333333
2018-07-28T01:43:48.394Z,21.8333333333
2018-07-28T01:44:00.774Z,21.8333333333
2018-07-28T01:44:13.178Z,21.8333333333
2018-07-28T01:44:25.577Z,21.7777777778
2018-07-28T01:44:37.961Z,21.8333333333
2018-07-28T01:44:50.447Z,21.8333333333
2018-07-28T01:45:02.849Z,21.7777777778
2018-07-28T01:45:15.226Z,21.8333333333
2018-07-28T01:45:27.612Z,21.8333333333
2018-07-28T01:45:40.011Z,21.8333333333
2018-07-28T01:45:52.430Z,21.7777777778
2018-07-28T01:46:04.863Z,21.8333333333
2018-07-28T01:46:17.284Z,21.8333333333
2018-07-28T01:46:29.684Z,21.7777777778
2018-07-28T01:46:42.100Z,21.8333333333
2018-07-28T01:46:54.495Z,21.8333333333
2018-07-28T01:47:06.881Z,21.8333333333
2018-07-28T01:47:19.268Z,21.7777777778
2018-07-28T01:47:31.728Z,21.7777777778
2018-07-28T01:47:44.136Z,21.8333333333
2018-07-28T01:47:56.539Z,21.7777777778
2018-07-28T01:48:09.085Z,21.7777777778
2018-07-28T01:48:21.501Z,21.7777777778
2018-07-28T01:48:33.921Z,21.8333333333
2018-07-28T01:48:46.340Z,21.8333333333
2018-07-28T01:48:58.883Z,21.7777777778
2018-07-28T01:49:11.283Z,21.7777777778
2018-07-28T01:49:23.867Z,21.8333333333
2018-07-28T01:49:37.151Z,21.7777777778
2018-07-28T01:49:49.570Z,21.7777777778
2018-07-28T01:50:01.983Z,21.7777777778
2018-07-28T01:50:14.392Z,21.7777777778
2018-07-28T01:50:26.819Z,21.7777777778
2018-07-28T01:50:39.210Z,21.7777777778
2018-07-28T01:50:51.596Z,21.7777777778
2018-07-28T01:51:03.994Z,21.7777777778
2018-07-28T01:51:16.392Z,21.7777777778
2018-07-28T01:51:28.802Z,21.7777777778
2018-07-28T01:51:41.379Z,21.7777777778
2018-07-28T01:51:53.824Z,21.7777777778
2018-07-28T01:52:06.230Z,21.7777777778
2018-07-28T01:52:18.627Z,21.7777777778
2018-07-28T01:52:31.028Z,21.7777777778
2018-07-28T01:52:43.447Z,21.7777777778
2018-07-28T01:52:55.841Z,21.7777777778
2018-07-28T01:53:08.245Z,21.7777777778
2018-07-28T01:53:20.828Z,21.7777777778
2018-07-28T01:53:33.227Z,21.7777777778
2018-07-28T01:53:45.629Z,21.7777777778
2018-07-28T01:53:58.018Z,21.7777777778
2018-07-28T01:54:10.427Z,21.7777777778
2018-07-28T01:54:22.802Z,21.7777777778
2018-07-28T01:54:35.198Z,21.7777777778
2018-07-28T01:54:47.592Z,21.7777777778
2018-07-28T01:54:59.984Z,21.7777777778
2018-07-28T01:55:12.394Z,21.7777777778
2018-07-28T01:55:24.971Z,21.7777777778
2018-07-28T01:55:37.366Z,21.7222222222
2018-07-28T01:55:49.781Z,21.7777777778
2018-07-28T01:56:02.195Z,21.7222222222
2018-07-28T01:56:14.588Z,21.7777777778
2018-07-28T01:56:26.992Z,21.7777777778
2018-07-28T01:56:39.433Z,21.7777777778
2018-07-28T01:56:51.837Z,21.7222222222
2018-07-28T01:57:04.250Z,21.7777777778
2018-07-28T01:57:16.674Z,21.7777777778
2018-07-28T01:57:29.068Z,21.7777777778
2018-07-28T01:57:41.445Z,21.7222222222
2018-07-28T01:57:53.879Z,21.7777777778
2018-07-28T01:58:06.285Z,21.7777777778
2018-07-28T01:58:18.681Z,21.7777777778
2018-07-28T01:58:31.231Z,21.7777777778
2018-07-28T01:58:43.653Z,21.7777777778
2018-07-28T01:58:56.042Z,21.7777777778
2018-07-28T01:59:08.442Z,21.7777777778
2018-07-28T01:59:20.859Z,21.7777777778
2018-07-28T01:59:33.318Z,21.7777777778
2018-07-28T01:59:46.087Z,21.7777777778
2018-07-28T01:59:59.069Z,21.7777777778
2018-07-28T02:00:11.497Z,21.7777777778
2018-07-28T02:00:23.933Z,21.7777777778
2018-07-28T02:00:36.344Z,21.7777777778
2018-07-28T02:00:48.849Z,21.7777777778
2018-07-28T02:01:01.298Z,21.7777777778
2018-07-28T02:01:13.683Z,21.7777777778
2018-07-28T02:01:26.084Z,21.7777777778
2018-07-28T02:01:38.555Z,21.7777777778
2018-07-28T02:01:50.995Z,21.7777777778
2018-07-28T02:02:03.406Z,21.7777777778
2018-07-28T02:02:16.009Z,21.7777777778
2018-07-28T02:02:28.411Z,21.7777777778
2018-07-28T02:02:40.825Z,21.7777777778
2018-07-28T02:02:53.250Z,21.7777777778
2018-07-28T02:03:05.679Z,21.7777777778
2018-07-28T02:03:18.086Z,21.7777777778
2018-07-28T02:03:30.491Z,21.7777777778
2018-07-28T02:03:42.901Z,21.7777777778
2018-07-28T02:03:55.329Z,21.7777777778
2018-07-28T02:04:07.732Z,21.7777777778
2018-07-28T02:04:20.351Z,21.7777777778
2018-07-28T02:04:32.786Z,21.7222222222
2018-07-28T02:04:45.196Z,21.7777777778
2018-07-28T02:04:57.598Z,21.7222222222
2018-07-28T02:05:10.027Z,21.7222222222
2018-07-28T02:05:22.471Z,21.7222222222
2018-07-28T02:05:34.875Z,21.7222222222
2018-07-28T02:05:47.282Z,21.7777777778
2018-07-28T02:05:59.952Z,21.7777777778
2018-07-28T02:06:12.411Z,21.7222222222
2018-07-28T02:06:24.818Z,21.7777777778
2018-07-28T02:06:37.227Z,21.7222222222
2018-07-28T02:06:49.610Z,21.7777777778
2018-07-28T02:07:02.018Z,21.7777777778
2018-07-28T02:07:14.416Z,21.7222222222
2018-07-28T02:07:26.810Z,21.7222222222
2018-07-28T02:07:39.215Z,21.7777777778
2018-07-28T02:07:51.614Z,21.7222222222
2018-07-28T02:08:04.018Z,21.7777777778
2018-07-28T02:08:16.397Z,21.7222222222
2018-07-28T02:08:28.787Z,21.7222222222
2018-07-28T02:08:41.178Z,21.7222222222
2018-07-28T02:08:53.589Z,21.7222222222
2018-07-28T02:09:05.980Z,21.7222222222
2018-07-28T02:09:18.420Z,21.7222222222
2018-07-28T02:09:30.818Z,21.7222222222
2018-07-28T02:09:43.245Z,21.7222222222
2018-07-28T02:09:55.650Z,21.6666666667
2018-07-28T02:10:08.092Z,21.6666666667
2018-07-28T02:10:20.556Z,21.6666666667
2018-07-28T02:10:32.966Z,21.7222222222
2018-07-28T02:10:45.372Z,21.7222222222